Time,TemperatureF,DewpointF,PressureIn,WindDirection,WindDirectionDegrees,WindSpeedMPH,WindSpeedGustMPH,Humidity,HourlyPrecipIn,Conditions,Clouds,dailyrainin,SoftwareType,DateUTC
2013-06-03 00:00:00,55.2,51.4,29.73,SSE,156,2.3,2.3,87,0.00,CLR,,0.00,WeatherDisplay:10.37,2013-06-03 07:00:00,
2013-06-03 00:05:00,55.1,51.3,29.73,South,169,4.0,4.0,87,0.00,CLR,,0.00,WeatherDisplay:10.37,2013-06-03 07:05:00,
2013-06-03 00:10:00,55.1,51.3,29.73,SSE,160,3.5,3.5,87,0.00,CLR,,0.00,WeatherDisplay:10.37,2013-06-03 07:10:00,
2013-06-03 00:15:00,54.9,51.1,29.73,SE,143,2.3,2.3,87,0.00,CLR,,0.00,WeatherDisplay:10.37,2013-06-03 07:15:00,
2013-06-03 00:20:00,54.9,51.1,29.73,SSE,161,3.5,3.5,87,0.00,CLR,,0.00,WeatherDisplay:10.37,2013-06-03 07:20:00,
2013-06-03 00:25:00,54.9,51.4,29.73,SSE,164,1.1,1.1,88,0.00,CLR,,0.00,WeatherDisplay:10.37,2013-06-03 07:25:00,
2013-06-03 00:30:00,54.8,51.0,29.73,South,170,2.3,2.3,87,0.00,CLR,,0.00,WeatherDisplay:10.37,2013-06-03 07:30:00,
2013-06-03 00:35:00,54.7,51.2,29.73,SSE,165,3.5,3.5,88,0.00,CLR,,0.00,WeatherDisplay:10.37,2013-06-03 07:35:00,
2013-06-03 00:40:00,54.7,51.2,29.73,SSE,156,2.3,2.3,88,0.00,CLR,,0.00,WeatherDisplay:10.37,2013-06-03 07:40:00,
2013-06-03 00:45:00,54.6,51.1,29.73,SW,215,2.3,2.3,88,0.00,CLR,,0.00,WeatherDisplay:10.37,2013-06-03 07:45:00,
2013-06-03 00:50:00,54.5,51.0,29.73,SSE,164,2.0,2.0,88,0.00,CLR,,0.00,WeatherDisplay:10.37,2013-06-03 07:50:00,
2013-06-03 00:55:00,54.4,50.9,29.73,SSE,160,2.3,2.3,88,0.00,CLR,,0.00,WeatherDisplay:10.37,2013-06-03 07:55:00,
2013-06-03 01:00:00,54.3,50.8,29.73,SSW,212,2.3,2.3,88,0.00,CLR,,0.00,WeatherDisplay:10.37,2013-06-03 08:00:00,
2013-06-03 01:05:00,54.3,50.8,29.73,SW,219,1.1,1.1,88,0.00,CLR,,0.00,WeatherDisplay:10.37,2013-06-03 08:05:00,
2013-06-03 01:10:00,54.2,50.7,29.73,SW,226,2.3,2.3,88,0.00,CLR,,0.00,WeatherDisplay:10.37,2013-06-03 08:10:00,
2013-06-03 01:15:00,54.1,50.6,29.73,SSE,155,1.1,1.1,88,0.00,CLR,,0.00,WeatherDisplay:10.37,2013-06-03 08:15:00,
2013-06-03 01:20:00,53.9,50.7,29.73,South,173,1.1,1.1,89,0.00,CLR,,0.00,WeatherDisplay:10.37,2013-06-03 08:20:00,
2013-06-03 01:25:00,53.9,50.7,29.74,SSE,167,2.3,2.3,89,0.00,CLR,,0.00,WeatherDisplay:10.37,2013-06-03 08:25:00,
2013-06-03 01:30:00,53.8,50.6,29.74,SW,217,2.3,2.3,89,0.00,CLR,,0.00,WeatherDisplay:10.37,2013-06-03 08:30:00,
2013-06-03 01:35:00,53.8,50.6,29.74,SSE,161,1.1,1.1,89,0.00,CLR,,0.00,WeatherDisplay:10.37,2013-06-03 08:35:00,
2013-06-03 01:40:00,53.7,50.5,29.74,South,191,3.5,3.5,89,0.00,CLR,,0.00,WeatherDisplay:10.37,2013-06-03 08:40:00,
2013-06-03 01:45:00,53.7,50.5,29.74,South,179,2.3,2.3,89,0.00,CLR,,0.00,WeatherDisplay:10.37,2013-06-03 08:45:00,
2013-06-03 01:50:00,53.7,50.5,29.74,SSE,165,2.3,2.3,89,0.00,CLR,,0.00,WeatherDisplay:10.37,2013-06-03 08:50:00,
2013-06-03 01:55:00,53.6,50.4,29.74,SSE,166,1.1,1.1,89,0.00,CLR,,0.00,WeatherDisplay:10.37,2013-06-03 08:55:00,
2013-06-03 02:00:00,53.5,50.3,29.74,SSE,165,1.1,1.1,89,0.00,CLR,,0.00,WeatherDisplay:10.37,2013-06-03 09:00:00,
2013-06-03 02:05:00,53.3,50.1,29.74,SW,236,0.0,0.1,89,0.00,CLR,,0.00,WeatherDisplay:10.37,2013-06-03 09:05:00,
2013-06-03 02:10:00,53.0,49.8,29.74,SSW,211,1.1,1.1,89,0.00,CLR,,0.00,WeatherDisplay:10.37,2013-06-03 09:10:00,
2013-06-03 02:15:00,53.0,50.1,29.74,SSW,210,1.1,1.1,90,0.00,CLR,,0.00,WeatherDisplay:10.37,2013-06-03 09:15:00,
2013-06-03 02:20:00,53.0,50.1,29.74,SSW,208,1.1,1.1,90,0.00,CLR,,0.00,WeatherDisplay:10.37,2013-06-03 09:20:00,
2013-06-03 02:25:00,52.9,50.0,29.74,South,187,1.1,1.1,90,0.00,CLR,,0.00,WeatherDisplay:10.37,2013-06-03 09:25:00,
2013-06-03 02:30:00,53.0,50.4,29.74,SW,218,1.1,1.1,91,0.00,CLR,,0.00,WeatherDisplay:10.37,2013-06-03 09:30:00,
2013-06-03 02:35:00,52.9,50.3,29.74,South,170,1.1,1.1,91,0.00,CLR,,0.00,WeatherDisplay:10.37,2013-06-03 09:35:00,
2013-06-03 02:40:00,52.9,50.3,29.74,South,173,1.1,1.1,91,0.00,CLR,,0.00,WeatherDisplay:10.37,2013-06-03 09:40:00,
2013-06-03 02:45:00,52.8,50.2,29.74,South,173,0.0,0.0,91,0.00,CLR,,0.00,WeatherDisplay:10.37,2013-06-03 09:45:00,
2013-06-03 02:50:00,52.6,50.0,29.75,South,173,0.0,0.0,91,0.00,CLR,,0.00,WeatherDisplay:10.37,2013-06-03 09:50:00,
2013-06-03 02:55:00,52.1,49.3,29.75,SSE,148,0.0,0.1,90,0.00,CLR,,0.00,WeatherDisplay:10.37,2013-06-03 09:55:00,
2013-06-03 03:00:00,51.9,49.4,29.75,SSE,149,1.1,1.1,91,0.00,CLR,,0.00,WeatherDisplay:10.37,2013-06-03 10:00:00,
2013-06-03 03:05:00,52.1,49.8,29.75,SSE,150,0.0,0.0,92,0.00,CLR,,0.00,WeatherDisplay:10.37,2013-06-03 10:05:00,
2013-06-03 03:10:00,52.2,49.9,29.74,SSE,150,0.0,0.3,92,0.00,CLR,,0.00,WeatherDisplay:10.37,2013-06-03 10:10:00,
2013-06-03 03:15:00,52.5,50.2,29.74,SSE,149,0.0,0.0,92,0.00,CLR,,0.00,WeatherDisplay:10.37,2013-06-03 10:15:00,
2013-06-03 03:20:00,52.6,50.3,29.74,SSE,150,1.1,1.1,92,0.00,CLR,,0.00,WeatherDisplay:10.37,2013-06-03 10:20:00,
2013-06-03 03:25:00,52.7,50.4,29.74,SSE,150,0.0,0.0,92,0.00,CLR,,0.00,WeatherDisplay:10.37,2013-06-03 10:25:00,
2013-06-03 03:30:00,52.9,50.6,29.74,SSE,150,1.0,1.0,92,0.00,CLR,,0.00,WeatherDisplay:10.37,2013-06-03 10:30:00,
2013-06-03 03:35:00,53.2,50.9,29.74,WSW,243,2.3,2.3,92,0.00,CLR,,0.00,WeatherDisplay:10.37,2013-06-03 10:35:00,
2013-06-03 03:40:00,53.4,50.8,29.74,WSW,243,1.1,1.1,91,0.00,CLR,,0.00,WeatherDisplay:10.37,2013-06-03 10:40:00,
2013-06-03 03:45:00,53.1,49.9,29.74,East,81,2.3,2.3,89,0.00,CLR,,0.00,WeatherDisplay:10.37,2013-06-03 10:45:00,
2013-06-03 03:50:00,52.2,49.4,29.74,East,80,1.1,1.1,90,0.00,CLR,,0.00,WeatherDisplay:10.37,2013-06-03 10:50:00,
2013-06-03 03:55:00,52.2,49.7,29.74,East,80,1.1,0.0,91,0.00,CLR,,0.00,WeatherDisplay:10.37,2013-06-03 10:55:00,
2013-06-03 04:00:00,52.0,49.5,29.74,East,81,1.1,0.0,91,0.00,CLR,,0.00,WeatherDisplay:10.37,2013-06-03 11:00:00,
2013-06-03 04:05:00,52.0,49.5,29.74,East,80,0.0,0.0,91,0.00,CLR,,0.00,WeatherDisplay:10.37,2013-06-03 11:05:00,
2013-06-03 04:10:00,51.6,49.1,29.74,East,80,2.0,2.0,91,0.00,CLR,,0.00,WeatherDisplay:10.37,2013-06-03 11:10:00,
2013-06-03 04:15:00,51.0,48.2,29.74,East,81,1.1,1.1,90,0.00,CLR,,0.00,WeatherDisplay:10.37,2013-06-03 11:15:00,
2013-06-03 04:20:00,50.8,48.3,29.74,East,80,1.1,1.1,91,0.00,CLR,,0.00,WeatherDisplay:10.37,2013-06-03 11:20:00,
2013-06-03 04:25:00,50.4,47.9,29.74,East,80,1.1,1.1,91,0.00,CLR,,0.00,WeatherDisplay:10.37,2013-06-03 11:25:00,
2013-06-03 04:30:00,50.3,47.8,29.74,North,8,1.1,1.1,91,0.00,CLR,,0.00,WeatherDisplay:10.37,2013-06-03 11:30:00,
2013-06-03 04:35:00,50.1,47.6,29.74,North,360,2.3,2.3,91,0.00,CLR,,0.00,WeatherDisplay:10.37,2013-06-03 11:35:00,
2013-06-03 04:40:00,50.2,48.0,29.74,North,358,1.1,1.1,92,0.00,CLR,,0.00,WeatherDisplay:10.37,2013-06-03 11:40:00,
2013-06-03 04:45:00,50.4,48.2,29.74,North,358,1.1,1.1,92,0.00,CLR,,0.00,WeatherDisplay:10.37,2013-06-03 11:45:00,
2013-06-03 04:50:00,50.5,48.3,29.74,North,358,1.1,1.1,92,0.00,CLR,,0.00,WeatherDisplay:10.37,2013-06-03 11:50:00,
2013-06-03 04:55:00,50.4,48.2,29.74,North,358,1.1,1.1,92,0.00,CLR,,0.00,WeatherDisplay:10.37,2013-06-03 11:55:00,
2013-06-03 05:00:00,50.3,48.1,29.75,North,359,1.1,0.0,92,0.00,CLR,,0.00,WeatherDisplay:10.37,2013-06-03 12:00:00,
2013-06-03 05:05:00,50.3,48.1,29.75,North,359,1.1,1.1,92,0.00,CLR,,0.00,WeatherDisplay:10.37,2013-06-03 12:05:00,
2013-06-03 05:10:00,50.0,47.8,29.75,North,359,0.0,0.0,92,0.00,CLR,,0.00,WeatherDisplay:10.37,2013-06-03 12:10:00,
2013-06-03 05:15:00,49.7,47.5,29.75,North,358,1.1,0.0,92,0.00,CLR,,0.00,WeatherDisplay:10.37,2013-06-03 12:15:00,
2013-06-03 05:20:00,49.6,47.4,29.75,North,358,0.0,0.0,92,0.00,CLR,,0.00,WeatherDisplay:10.37,2013-06-03 12:20:00,
2013-06-03 05:25:00,49.7,47.8,29.75,North,358,0.0,0.0,93,0.00,CLR,,0.00,WeatherDisplay:10.37,2013-06-03 12:25:00,
2013-06-03 05:30:00,49.6,47.7,29.75,North,358,0.0,0.0,93,0.00,CLR,,0.00,WeatherDisplay:10.37,2013-06-03 12:30:00,
2013-06-03 05:35:00,49.6,47.7,29.75,North,359,0.0,0.0,93,0.00,CLR,,0.00,WeatherDisplay:10.37,2013-06-03 12:35:00,
2013-06-03 05:41:00,49.7,47.8,29.75,North,358,0.0,0.0,93,0.00,CLR,,0.00,WeatherDisplay:10.37,2013-06-03 12:41:00,
2013-06-03 05:46:00,49.8,47.9,29.75,North,358,0.0,0.0,93,0.00,CLR,,0.00,WeatherDisplay:10.37,2013-06-03 12:46:00,
2013-06-03 05:51:00,49.9,48.0,29.75,North,359,0.0,0.0,93,0.00,CLR,,0.00,WeatherDisplay:10.37,2013-06-03 12:51:00,
2013-06-03 05:56:00,50.0,48.1,29.75,North,358,0.0,0.0,93,0.00,CLR,,0.00,WeatherDisplay:10.37,2013-06-03 12:56:00,
2013-06-03 06:01:00,50.0,48.1,29.76,North,358,0.0,0.0,93,0.00,CLR,,0.00,WeatherDisplay:10.37,2013-06-03 13:01:00,
2013-06-03 06:06:00,50.1,48.2,29.76,North,358,0.0,0.0,93,0.00,CLR,,0.00,WeatherDisplay:10.37,2013-06-03 13:06:00,
2013-06-03 06:11:00,50.2,48.3,29.76,North,359,0.0,0.0,93,0.00,CLR,,0.00,WeatherDisplay:10.37,2013-06-03 13:11:00,
2013-06-03 06:16:00,50.4,48.5,29.76,North,358,1.0,1.0,93,0.00,CLR,,0.00,WeatherDisplay:10.37,2013-06-03 13:16:00,
2013-06-03 06:21:00,50.6,48.7,29.76,North,358,1.1,1.1,93,0.00,CLR,,0.00,WeatherDisplay:10.37,2013-06-03 13:21:00,
2013-06-03 06:26:00,50.8,48.8,29.76,North,358,0.0,0.0,93,0.00,CLR,,0.00,WeatherDisplay:10.37,2013-06-03 13:26:00,
2013-06-03 06:31:00,51.1,49.1,29.76,North,359,0.0,0.0,93,0.00,CLR,,0.00,WeatherDisplay:10.37,2013-06-03 13:31:00,
2013-06-03 06:36:00,51.4,49.4,29.76,North,359,1.1,1.1,93,0.00,CLR,,0.00,WeatherDisplay:10.37,2013-06-03 13:36:00,
2013-06-03 06:41:00,51.8,49.8,29.76,North,358,0.0,0.0,93,0.00,CLR,,0.00,WeatherDisplay:10.37,2013-06-03 13:41:00,
2013-06-03 06:46:00,52.1,50.1,29.77,North,358,0.0,0.0,93,0.00,CLR,,0.00,WeatherDisplay:10.37,2013-06-03 13:46:00,
2013-06-03 06:51:00,52.3,50.0,29.77,North,358,0.0,0.0,92,0.00,CLR,,0.00,WeatherDisplay:10.37,2013-06-03 13:51:00,
2013-06-03 06:56:00,52.6,50.3,29.77,North,358,0.0,0.0,92,0.00,CLR,,0.00,WeatherDisplay:10.37,2013-06-03 13:56:00,
2013-06-03 07:01:00,53.0,50.7,29.77,North,359,1.1,1.1,92,0.00,CLR,,0.00,WeatherDisplay:10.37,2013-06-03 14:01:00,
2013-06-03 07:06:00,53.4,51.1,29.77,North,359,0.0,0.0,92,0.00,CLR,,0.00,WeatherDisplay:10.37,2013-06-03 14:06:00,
2013-06-03 07:11:00,53.8,51.5,29.77,North,359,1.1,1.1,92,0.00,CLR,,0.00,WeatherDisplay:10.37,2013-06-03 14:11:00,
2013-06-03 07:16:00,54.2,51.9,29.77,SSW,210,1.1,1.1,92,0.00,CLR,,0.00,WeatherDisplay:10.37,2013-06-03 14:16:00,
2013-06-03 07:21:00,54.4,51.8,29.77,South,185,0.0,0.0,91,0.00,CLR,,0.00,WeatherDisplay:10.37,2013-06-03 14:21:00,
2013-06-03 07:26:00,54.7,52.1,29.78,South,184,0.0,0.0,91,0.00,CLR,,0.00,WeatherDisplay:10.37,2013-06-03 14:26:00,
2013-06-03 07:31:00,55.0,52.4,29.78,SE,146,0.0,0.0,91,0.00,CLR,,0.00,WeatherDisplay:10.37,2013-06-03 14:31:00,
2013-06-03 07:36:00,55.1,52.2,29.78,SE,127,0.0,0.0,90,0.00,CLR,,0.00,WeatherDisplay:10.37,2013-06-03 14:36:00,
2013-06-03 07:41:00,55.2,52.3,29.78,SE,124,2.3,2.3,90,0.00,CLR,,0.00,WeatherDisplay:10.37,2013-06-03 14:41:00,
2013-06-03 07:46:00,55.3,52.4,29.78,SE,126,2.3,2.3,90,0.00,CLR,,0.00,WeatherDisplay:10.37,2013-06-03 14:46:00,
2013-06-03 07:51:00,55.5,52.3,29.78,SSE,150,3.5,3.5,89,0.00,CLR,,0.00,WeatherDisplay:10.37,2013-06-03 14:51:00,
2013-06-03 07:56:00,55.7,52.5,29.78,South,169,1.0,0.0,89,0.00,CLR,,0.00,WeatherDisplay:10.37,2013-06-03 14:56:00,
2013-06-03 08:01:00,56.0,52.8,29.78,SSE,154,3.5,3.5,89,0.00,CLR,,0.00,WeatherDisplay:10.37,2013-06-03 15:01:00,
2013-06-03 08:06:00,56.3,52.8,29.79,SSE,159,1.1,1.1,88,0.00,CLR,,0.00,WeatherDisplay:10.37,2013-06-03 15:06:00,
2013-06-03 08:11:00,56.6,53.1,29.79,WSW,244,1.1,1.1,88,0.00,CLR,,0.00,WeatherDisplay:10.37,2013-06-03 15:11:00,
2013-06-03 08:16:00,57.0,53.2,29.79,WSW,252,1.1,1.1,87,0.00,CLR,,0.00,WeatherDisplay:10.37,2013-06-03 15:16:00,
2013-06-03 08:21:00,57.3,53.1,29.79,South,169,1.1,1.1,86,0.00,CLR,,0.00,WeatherDisplay:10.37,2013-06-03 15:21:00,
2013-06-03 08:26:00,57.6,53.1,29.79,South,180,2.3,2.3,85,0.00,CLR,,0.00,WeatherDisplay:10.37,2013-06-03 15:26:00,
2013-06-03 08:31:00,58.0,53.5,29.79,SW,235,1.1,1.1,85,0.00,CLR,,0.00,WeatherDisplay:10.37,2013-06-03 15:31:00,
2013-06-03 08:36:00,58.5,53.7,29.79,SSW,203,2.3,2.3,84,0.00,CLR,,0.00,WeatherDisplay:10.37,2013-06-03 15:36:00,
2013-06-03 08:41:00,58.8,53.6,29.79,SE,133,2.3,2.3,83,0.00,CLR,,0.00,WeatherDisplay:10.37,2013-06-03 15:41:00,
2013-06-03 08:46:00,59.0,53.8,29.80,SW,235,1.1,1.1,83,0.00,CLR,,0.00,WeatherDisplay:10.37,2013-06-03 15:46:00,
2013-06-03 08:51:00,59.7,54.5,29.79,SSE,160,1.1,1.1,83,0.00,CLR,,0.00,WeatherDisplay:10.37,2013-06-03 15:51:00,
2013-06-03 08:56:00,60.3,54.4,29.80,ESE,102,1.1,1.1,81,0.00,CLR,,0.00,WeatherDisplay:10.37,2013-06-03 15:56:00,
2013-06-03 09:01:00,60.4,54.5,29.79,ENE,58,1.0,0.0,81,0.00,CLR,,0.00,WeatherDisplay:10.37,2013-06-03 16:01:00,
2013-06-03 09:06:00,60.6,54.0,29.79,South,190,2.3,2.3,79,0.00,CLR,,0.00,WeatherDisplay:10.37,2013-06-03 16:06:00,
2013-06-03 09:11:00,60.7,54.1,29.79,SSW,211,2.3,2.3,79,0.00,CLR,,0.00,WeatherDisplay:10.37,2013-06-03 16:11:00,
2013-06-03 09:16:00,61.0,54.8,29.79,NW,325,3.5,3.5,80,0.00,CLR,,0.00,WeatherDisplay:10.37,2013-06-03 16:16:00,
2013-06-03 09:21:00,61.1,54.5,29.79,NW,322,2.3,2.3,79,0.00,CLR,,0.00,WeatherDisplay:10.37,2013-06-03 16:21:00,
2013-06-03 09:26:00,61.2,55.0,29.79,NW,316,1.1,1.1,80,0.00,CLR,,0.00,WeatherDisplay:10.37,2013-06-03 16:26:00,
2013-06-03 09:31:00,61.2,54.6,29.79,NW,326,2.3,2.3,79,0.00,CLR,,0.00,WeatherDisplay:10.37,2013-06-03 16:31:00,
2013-06-03 09:36:00,61.4,54.5,29.79,SE,131,1.1,1.1,78,0.00,CLR,,0.00,WeatherDisplay:10.37,2013-06-03 16:36:00,
2013-06-03 09:41:00,62.0,54.7,29.79,South,183,3.5,3.5,77,0.00,CLR,,0.00,WeatherDisplay:10.37,2013-06-03 16:41:00,
2013-06-03 09:46:00,62.5,55.2,29.79,WSW,240,2.3,2.3,77,0.00,CLR,,0.00,WeatherDisplay:10.37,2013-06-03 16:46:00,
2013-06-03 09:51:00,63.2,55.5,29.79,WNW,298,1.1,1.1,76,0.00,CLR,,0.00,WeatherDisplay:10.37,2013-06-03 16:51:00,
2013-06-03 09:56:00,63.5,55.1,29.79,North,9,1.1,1.1,74,0.00,CLR,,0.00,WeatherDisplay:10.37,2013-06-03 16:56:00,
2013-06-03 10:01:00,63.7,56.0,29.79,East,100,2.3,2.3,76,0.00,CLR,,0.00,WeatherDisplay:10.37,2013-06-03 17:01:00,
2013-06-03 10:06:00,64.4,55.9,29.79,South,173,4.6,4.6,74,0.00,CLR,,0.00,WeatherDisplay:10.37,2013-06-03 17:06:00,
2013-06-03 10:11:00,64.5,55.7,29.79,SSW,193,2.3,2.3,73,0.00,CLR,,0.00,WeatherDisplay:10.37,2013-06-03 17:11:00,
2013-06-03 10:16:00,65.1,55.8,29.79,SSW,203,2.3,2.3,72,0.00,CLR,,0.00,WeatherDisplay:10.37,2013-06-03 17:16:00,
2013-06-03 10:21:00,65.6,56.7,29.79,East,84,4.6,4.6,73,0.00,CLR,,0.00,WeatherDisplay:10.37,2013-06-03 17:21:00,
2013-06-03 10:26:00,66.2,56.1,29.79,SE,131,3.5,3.5,70,0.00,CLR,,0.00,WeatherDisplay:10.37,2013-06-03 17:26:00,
2013-06-03 10:31:00,66.6,56.1,29.79,SSE,162,1.1,1.1,69,0.00,CLR,,0.00,WeatherDisplay:10.37,2013-06-03 17:31:00,
2013-06-03 10:36:00,67.1,56.6,29.79,SE,129,3.5,3.5,69,0.00,CLR,,0.00,WeatherDisplay:10.37,2013-06-03 17:36:00,
2013-06-03 10:41:00,67.7,56.3,29.79,SSE,158,3.5,3.5,67,0.00,CLR,,0.00,WeatherDisplay:10.37,2013-06-03 17:41:00,
2013-06-03 10:46:00,68.0,56.2,29.79,SSE,149,1.1,1.1,66,0.00,CLR,,0.00,WeatherDisplay:10.37,2013-06-03 17:46:00,
2013-06-03 10:51:00,68.7,57.3,29.79,SSW,200,4.0,4.0,67,0.00,CLR,,0.00,WeatherDisplay:10.37,2013-06-03 17:51:00,
2013-06-03 10:56:00,69.4,56.7,29.79,South,170,4.0,4.0,64,0.00,CLR,,0.00,WeatherDisplay:10.37,2013-06-03 17:56:00,
2013-06-03 11:01:00,69.8,57.1,29.79,South,188,4.6,4.6,64,0.00,CLR,,0.00,WeatherDisplay:10.37,2013-06-03 18:01:00,
2013-06-03 11:06:00,70.2,56.6,29.79,SSE,167,5.8,5.8,62,0.00,CLR,,0.00,WeatherDisplay:10.37,2013-06-03 18:06:00,
2013-06-03 11:11:00,70.7,57.0,29.79,SSE,155,3.5,3.5,62,0.00,CLR,,0.00,WeatherDisplay:10.37,2013-06-03 18:11:00,
2013-06-03 11:16:00,71.1,56.0,29.79,SSW,200,4.6,4.6,59,0.00,CLR,,0.00,WeatherDisplay:10.37,2013-06-03 18:16:00,
2013-06-03 11:21:00,71.7,58.0,29.79,South,184,3.5,3.5,62,0.00,CLR,,0.00,WeatherDisplay:10.37,2013-06-03 18:21:00,
2013-06-03 11:26:00,72.4,56.8,29.79,SW,215,1.1,1.1,58,0.00,CLR,,0.00,WeatherDisplay:10.37,2013-06-03 18:26:00,
2013-06-03 11:31:00,73.1,58.4,29.79,ESE,116,3.5,3.5,60,0.00,CLR,,0.00,WeatherDisplay:10.37,2013-06-03 18:31:00,
2013-06-03 11:36:00,73.7,57.5,29.79,SSE,160,3.5,3.5,57,0.00,CLR,,0.00,WeatherDisplay:10.37,2013-06-03 18:36:00,
2013-06-03 11:41:00,74.4,57.7,29.79,SE,145,3.5,3.5,56,0.00,CLR,,0.00,WeatherDisplay:10.37,2013-06-03 18:41:00,
2013-06-03 11:46:00,75.0,57.7,29.79,SE,135,3.5,3.5,55,0.00,CLR,,0.00,WeatherDisplay:10.37,2013-06-03 18:46:00,
2013-06-03 11:51:00,75.3,57.0,29.78,South,180,3.5,3.5,53,0.00,CLR,,0.00,WeatherDisplay:10.37,2013-06-03 18:51:00,
2013-06-03 11:56:00,76.0,57.1,29.78,SE,143,2.3,2.3,52,0.00,CLR,,0.00,WeatherDisplay:10.37,2013-06-03 18:56:00,
2013-06-03 12:01:00,76.3,57.4,29.79,SSE,161,4.6,4.6,52,0.00,CLR,,0.00,WeatherDisplay:10.37,2013-06-03 19:01:00,
2013-06-03 12:06:00,76.6,56.6,29.78,SE,125,9.2,9.2,50,0.00,CLR,,0.00,WeatherDisplay:10.37,2013-06-03 19:06:00,
2013-06-03 12:11:00,76.6,57.7,29.79,South,187,8.1,8.1,52,0.00,CLR,,0.00,WeatherDisplay:10.37,2013-06-03 19:11:00,
2013-06-03 12:16:00,76.7,57.2,29.79,SSE,153,3.5,3.5,51,0.00,CLR,,0.00,WeatherDisplay:10.37,2013-06-03 19:16:00,
2013-06-03 12:21:00,76.6,57.7,29.79,South,169,4.6,4.6,52,0.00,CLR,,0.00,WeatherDisplay:10.37,2013-06-03 19:21:00,
2013-06-03 12:26:00,76.7,57.2,29.79,SSE,163,9.2,9.2,51,0.00,CLR,,0.00,WeatherDisplay:10.37,2013-06-03 19:26:00,
2013-06-03 12:31:00,76.5,58.1,29.79,SSE,155,8.0,8.0,53,0.00,CLR,,0.00,WeatherDisplay:10.37,2013-06-03 19:31:00,
2013-06-03 12:36:00,76.1,57.7,29.79,SSE,158,8.0,8.0,53,0.00,CLR,,0.00,WeatherDisplay:10.37,2013-06-03 19:36:00,
2013-06-03 12:41:00,76.3,57.4,29.79,ESE,122,5.8,5.8,52,0.00,CLR,,0.00,WeatherDisplay:10.37,2013-06-03 19:41:00,
2013-06-03 12:46:00,76.3,57.9,29.79,ESE,112,3.5,3.5,53,0.00,CLR,,0.00,WeatherDisplay:10.37,2013-06-03 19:46:00,
2013-06-03 12:51:00,77.0,58.0,29.78,SSE,153,9.2,9.2,52,0.00,CLR,,0.00,WeatherDisplay:10.37,2013-06-03 19:51:00,
2013-06-03 12:56:00,77.5,59.0,29.78,SW,223,3.5,3.5,53,0.00,CLR,,0.00,WeatherDisplay:10.37,2013-06-03 19:56:00,
2013-06-03 13:01:00,77.2,58.2,29.78,South,174,5.8,5.8,52,0.00,CLR,,0.00,WeatherDisplay:10.37,2013-06-03 20:01:00,
2013-06-03 13:06:00,77.4,58.4,29.78,South,179,9.0,9.0,52,0.00,CLR,,0.00,WeatherDisplay:10.37,2013-06-03 20:06:00,
2013-06-03 13:11:00,77.4,58.4,29.78,SSE,151,9.2,9.2,52,0.00,CLR,,0.00,WeatherDisplay:10.37,2013-06-03 20:11:00,
2013-06-03 13:16:00,77.4,58.4,29.78,South,181,11.5,11.5,52,0.00,CLR,,0.00,WeatherDisplay:10.37,2013-06-03 20:16:00,
2013-06-03 13:21:00,77.3,57.8,29.78,South,172,11.5,11.5,51,0.00,CLR,,0.00,WeatherDisplay:10.37,2013-06-03 20:21:00,
2013-06-03 13:26:00,77.4,57.9,29.78,SSE,152,9.2,9.2,51,0.00,CLR,,0.00,WeatherDisplay:10.37,2013-06-03 20:26:00,
2013-06-03 13:31:00,77.2,58.2,29.78,South,186,11.5,11.5,52,0.00,CLR,,0.00,WeatherDisplay:10.37,2013-06-03 20:31:00,
2013-06-03 13:36:00,77.1,58.1,29.78,SE,143,10.4,10.4,52,0.00,CLR,,0.00,WeatherDisplay:10.37,2013-06-03 20:36:00,
2013-06-03 13:41:00,77.4,58.4,29.78,SSE,163,4.6,4.6,52,0.00,CLR,,0.00,WeatherDisplay:10.37,2013-06-03 20:41:00,
2013-06-03 13:46:00,77.7,58.7,29.78,South,176,6.0,6.0,52,0.00,CLR,,0.00,WeatherDisplay:10.37,2013-06-03 20:46:00,
2013-06-03 13:51:00,78.0,58.4,29.78,ESE,115,6.9,6.9,51,0.00,CLR,,0.00,WeatherDisplay:10.37,2013-06-03 20:51:00,
2013-06-03 13:56:00,77.9,58.9,29.78,ESE,122,4.6,4.6,52,0.00,CLR,,0.00,WeatherDisplay:10.37,2013-06-03 20:56:00,
2013-06-03 14:01:00,78.5,57.7,29.78,SSE,148,8.0,8.0,49,0.00,CLR,,0.00,WeatherDisplay:10.37,2013-06-03 21:01:00,
2013-06-03 14:06:00,79.0,58.2,29.78,SSE,148,11.5,11.5,49,0.00,CLR,,0.00,WeatherDisplay:10.37,2013-06-03 21:06:00,
2013-06-03 14:11:00,79.3,58.5,29.78,SSE,150,8.1,8.1,49,0.00,CLR,,0.00,WeatherDisplay:10.37,2013-06-03 21:11:00,
2013-06-03 14:16:00,79.7,58.3,29.78,ESE,112,9.2,9.2,48,0.00,CLR,,0.00,WeatherDisplay:10.37,2013-06-03 21:16:00,
2013-06-03 14:21:00,80.4,58.3,29.78,South,179,4.6,4.6,47,0.00,CLR,,0.00,WeatherDisplay:10.37,2013-06-03 21:21:00,
2013-06-03 14:26:00,80.7,58.6,29.78,SE,134,2.3,2.3,47,0.00,CLR,,0.00,WeatherDisplay:10.37,2013-06-03 21:26:00,
2013-06-03 14:32:00,81.2,58.5,29.78,SE,146,3.5,3.5,46,0.00,CLR,,0.00,WeatherDisplay:10.37,2013-06-03 21:32:00,
2013-06-03 14:37:00,81.6,58.8,29.78,SSE,165,3.5,3.5,46,0.00,CLR,,0.00,WeatherDisplay:10.37,2013-06-03 21:37:00,
2013-06-03 14:42:00,82.3,58.8,29.78,ESE,122,4.6,4.6,45,0.00,CLR,,0.00,WeatherDisplay:10.37,2013-06-03 21:42:00,
2013-06-03 14:47:00,82.8,59.3,29.78,NE,43,3.5,3.5,45,0.00,CLR,,0.00,WeatherDisplay:10.37,2013-06-03 21:47:00,
2013-06-03 14:52:00,81.7,58.3,29.77,NE,44,5.8,5.8,45,0.00,CLR,,0.00,WeatherDisplay:10.37,2013-06-03 21:52:00,
2013-06-03 14:57:00,81.1,58.4,29.77,NNW,336,6.0,6.0,46,0.00,CLR,,0.00,WeatherDisplay:10.37,2013-06-03 21:57:00,
2013-06-03 15:02:00,80.7,58.0,29.77,NW,308,4.6,4.6,46,0.00,CLR,,0.00,WeatherDisplay:10.37,2013-06-03 22:02:00,
2013-06-03 15:07:00,81.4,57.4,29.77,NNW,331,6.0,6.0,44,0.00,CLR,,0.00,WeatherDisplay:10.37,2013-06-03 22:07:00,
2013-06-03 15:12:00,80.1,57.5,29.77,NW,306,7.0,7.0,46,0.00,CLR,,0.00,WeatherDisplay:10.37,2013-06-03 22:12:00,
2013-06-03 15:17:00,80.8,58.1,29.77,WNW,297,3.5,3.5,46,0.00,CLR,,0.00,WeatherDisplay:10.37,2013-06-03 22:17:00,
2013-06-03 15:22:00,80.4,57.7,29.77,NNW,329,4.6,4.6,46,0.00,CLR,,0.00,WeatherDisplay:10.37,2013-06-03 22:22:00,
2013-06-03 15:27:00,80.1,56.8,29.77,West,277,8.1,8.1,45,0.00,CLR,,0.00,WeatherDisplay:10.37,2013-06-03 22:27:00,
2013-06-03 15:32:00,80.0,57.4,29.77,NW,306,4.6,4.6,46,0.00,CLR,,0.00,WeatherDisplay:10.37,2013-06-03 22:32:00,
2013-06-03 15:37:00,81.0,57.0,29.77,NW,305,4.6,4.6,44,0.00,CLR,,0.00,WeatherDisplay:10.37,2013-06-03 22:37:00,
2013-06-03 15:42:00,79.8,56.6,29.77,WNW,303,4.6,4.6,45,0.00,CLR,,0.00,WeatherDisplay:10.37,2013-06-03 22:42:00,
2013-06-03 15:47:00,79.7,57.1,29.77,WNW,295,6.9,6.9,46,0.00,CLR,,0.00,WeatherDisplay:10.37,2013-06-03 22:47:00,
2013-06-03 15:52:00,79.3,56.1,29.77,WNW,294,10.4,10.4,45,0.00,CLR,,0.00,WeatherDisplay:10.37,2013-06-03 22:52:00,
2013-06-03 15:57:00,78.6,56.7,29.77,NW,319,8.1,8.1,47,0.00,CLR,,0.00,WeatherDisplay:10.37,2013-06-03 22:57:00,
2013-06-03 16:02:00,78.0,56.1,29.77,NNW,335,11.5,11.5,47,0.00,CLR,,0.00,WeatherDisplay:10.37,2013-06-03 23:02:00,
2013-06-03 16:07:00,77.7,55.9,29.77,NW,316,12.7,12.7,47,0.00,CLR,,0.00,WeatherDisplay:10.37,2013-06-03 23:07:00,
2013-06-03 16:12:00,77.3,55.5,29.77,West,264,10.4,10.4,47,0.00,CLR,,0.00,WeatherDisplay:10.37,2013-06-03 23:12:00,
2013-06-03 16:17:00,77.5,56.3,29.77,WNW,298,11.5,11.5,48,0.00,CLR,,0.00,WeatherDisplay:10.37,2013-06-03 23:17:00,
2013-06-03 16:22:00,77.7,56.4,29.77,NNW,338,5.8,5.8,48,0.00,CLR,,0.00,WeatherDisplay:10.37,2013-06-03 23:22:00,
2013-06-03 16:27:00,77.9,56.0,29.77,WNW,295,3.5,3.5,47,0.00,CLR,,0.00,WeatherDisplay:10.37,2013-06-03 23:27:00,
2013-06-03 16:32:00,78.0,56.1,29.77,SW,224,3.5,3.5,47,0.00,CLR,,0.00,WeatherDisplay:10.37,2013-06-03 23:32:00,
2013-06-03 16:37:00,77.5,55.7,29.77,WNW,300,7.0,7.0,47,0.00,CLR,,0.00,WeatherDisplay:10.37,2013-06-03 23:37:00,
2013-06-03 16:42:00,77.1,55.3,29.77,WNW,302,11.5,11.5,47,0.00,CLR,,0.00,WeatherDisplay:10.37,2013-06-03 23:42:00,
2013-06-03 16:47:00,76.7,55.5,29.77,WNW,293,8.1,8.1,48,0.00,CLR,,0.00,WeatherDisplay:10.37,2013-06-03 23:47:00,
2013-06-03 16:52:00,76.8,55.6,29.77,WNW,287,8.1,8.1,48,0.00,CLR,,0.00,WeatherDisplay:10.37,2013-06-03 23:52:00,
2013-06-03 16:57:00,76.9,55.7,29.77,West,277,9.2,9.2,48,0.00,CLR,,0.00,WeatherDisplay:10.37,2013-06-03 23:57:00,
2013-06-03 17:02:00,76.4,55.3,29.77,WNW,285,6.9,6.9,48,0.00,CLR,,0.00,WeatherDisplay:10.37,2013-06-04 00:02:00,
2013-06-03 17:07:00,76.3,55.2,29.77,NW,307,7.0,7.0,48,0.00,CLR,,0.00,WeatherDisplay:10.37,2013-06-04 00:07:00,
2013-06-03 17:12:00,75.8,55.3,29.77,WNW,287,8.1,8.1,49,0.00,CLR,,0.00,WeatherDisplay:10.37,2013-06-04 00:12:00,
2013-06-03 17:17:00,75.9,55.4,29.77,NW,321,9.2,9.2,49,0.00,CLR,,0.00,WeatherDisplay:10.37,2013-06-04 00:17:00,
2013-06-03 17:22:00,76.1,55.0,29.77,WNW,300,3.5,3.5,48,0.00,CLR,,0.00,WeatherDisplay:10.37,2013-06-04 00:22:00,
2013-06-03 17:27:00,75.9,54.8,29.77,WNW,295,9.2,9.2,48,0.00,CLR,,0.00,WeatherDisplay:10.37,2013-06-04 00:27:00,
2013-06-03 17:32:00,75.9,54.8,29.77,NNW,338,6.0,6.0,48,0.00,CLR,,0.00,WeatherDisplay:10.37,2013-06-04 00:32:00,
2013-06-03 17:37:00,75.7,54.6,29.77,NW,326,8.1,8.1,48,0.00,CLR,,0.00,WeatherDisplay:10.37,2013-06-04 00:37:00,
2013-06-03 17:42:00,75.7,54.6,29.77,West,278,8.1,8.1,48,0.00,CLR,,0.00,WeatherDisplay:10.37,2013-06-04 00:42:00,
2013-06-03 17:47:00,75.5,54.4,29.77,WSW,258,4.6,4.6,48,0.00,CLR,,0.00,WeatherDisplay:10.37,2013-06-04 00:47:00,
2013-06-03 17:52:00,75.2,54.2,29.77,SW,229,10.4,10.4,48,0.00,CLR,,0.00,WeatherDisplay:10.37,2013-06-04 00:52:00,
2013-06-03 17:57:00,75.4,54.3,29.77,West,264,6.9,6.9,48,0.00,CLR,,0.00,WeatherDisplay:10.37,2013-06-04 00:57:00,
2013-06-03 18:02:00,75.2,54.2,29.77,West,263,5.8,5.8,48,0.00,CLR,,0.00,WeatherDisplay:10.37,2013-06-04 01:02:00,
2013-06-03 18:07:00,75.1,54.6,29.77,SW,215,3.5,3.5,49,0.00,CLR,,0.00,WeatherDisplay:10.37,2013-06-04 01:07:00,
2013-06-03 18:12:00,75.0,54.0,29.77,WSW,255,5.8,5.8,48,0.00,CLR,,0.00,WeatherDisplay:10.37,2013-06-04 01:12:00,
2013-06-03 18:17:00,75.1,54.1,29.77,WNW,297,4.6,4.6,48,0.00,CLR,,0.00,WeatherDisplay:10.37,2013-06-04 01:17:00,
2013-06-03 18:22:00,75.4,54.3,29.77,WNW,287,3.5,3.5,48,0.00,CLR,,0.00,WeatherDisplay:10.37,2013-06-04 01:22:00,
2013-06-03 18:27:00,75.2,54.7,29.77,WSW,257,3.5,3.5,49,0.00,CLR,,0.00,WeatherDisplay:10.37,2013-06-04 01:27:00,
2013-06-03 18:32:00,75.1,54.1,29.77,NW,314,6.9,6.9,48,0.00,CLR,,0.00,WeatherDisplay:10.37,2013-06-04 01:32:00,
2013-06-03 18:37:00,74.4,53.4,29.77,NW,319,6.9,6.9,48,0.00,CLR,,0.00,WeatherDisplay:10.37,2013-06-04 01:37:00,
2013-06-03 18:42:00,74.2,53.8,29.77,NW,324,5.8,5.8,49,0.00,CLR,,0.00,WeatherDisplay:10.37,2013-06-04 01:42:00,
2013-06-03 18:47:00,73.9,53.5,29.77,SW,225,3.5,3.5,49,0.00,CLR,,0.00,WeatherDisplay:10.37,2013-06-04 01:47:00,
2013-06-03 18:52:00,73.7,53.3,29.77,NW,314,4.0,4.0,49,0.00,CLR,,0.00,WeatherDisplay:10.37,2013-06-04 01:52:00,
2013-06-03 18:57:00,73.9,53.5,29.78,NW,318,5.0,5.0,49,0.00,CLR,,0.00,WeatherDisplay:10.37,2013-06-04 01:57:00,
2013-06-03 19:02:00,74.3,53.3,29.78,NW,307,2.3,2.3,48,0.00,CLR,,0.00,WeatherDisplay:10.37,2013-06-04 02:02:00,
2013-06-03 19:07:00,74.5,53.5,29.78,NW,311,3.5,3.5,48,0.00,CLR,,0.00,WeatherDisplay:10.37,2013-06-04 02:07:00,
2013-06-03 19:12:00,74.0,53.1,29.78,West,267,8.1,8.1,48,0.00,CLR,,0.00,WeatherDisplay:10.37,2013-06-04 02:12:00,
2013-06-03 19:17:00,73.1,52.8,29.78,WNW,294,5.8,5.8,49,0.00,CLR,,0.00,WeatherDisplay:10.37,2013-06-04 02:17:00,
2013-06-03 19:22:00,72.6,52.9,29.78,NW,307,4.0,4.0,50,0.00,CLR,,0.00,WeatherDisplay:10.37,2013-06-04 02:22:00,
2013-06-03 19:27:00,72.0,52.9,29.79,SW,236,3.5,3.5,51,0.00,CLR,,0.00,WeatherDisplay:10.37,2013-06-04 02:27:00,
2013-06-03 19:32:00,72.0,52.9,29.79,WSW,243,5.8,5.8,51,0.00,CLR,,0.00,WeatherDisplay:10.37,2013-06-04 02:32:00,
2013-06-03 19:37:00,71.8,52.7,29.79,WNW,295,3.5,3.5,51,0.00,CLR,,0.00,WeatherDisplay:10.37,2013-06-04 02:37:00,
2013-06-03 19:42:00,71.5,52.9,29.79,WSW,244,3.5,3.5,52,0.00,CLR,,0.00,WeatherDisplay:10.37,2013-06-04 02:42:00,
2013-06-03 19:47:00,71.1,52.6,29.80,WNW,290,4.6,4.6,52,0.00,CLR,,0.00,WeatherDisplay:10.37,2013-06-04 02:47:00,
2013-06-03 19:52:00,70.6,52.6,29.80,NW,307,7.0,7.0,53,0.00,CLR,,0.00,WeatherDisplay:10.37,2013-06-04 02:52:00,
2013-06-03 19:57:00,70.2,52.8,29.80,SW,221,3.0,3.0,54,0.00,CLR,,0.00,WeatherDisplay:10.37,2013-06-04 02:57:00,
2013-06-03 20:02:00,69.7,52.3,29.80,SW,221,2.3,2.3,54,0.00,CLR,,0.00,WeatherDisplay:10.37,2013-06-04 03:02:00,
2013-06-03 20:07:00,69.2,52.3,29.80,WSW,243,3.5,3.5,55,0.00,CLR,,0.00,WeatherDisplay:10.37,2013-06-04 03:07:00,
2013-06-03 20:12:00,68.4,52.1,29.81,NNW,330,6.0,6.0,56,0.00,CLR,,0.00,WeatherDisplay:10.37,2013-06-04 03:12:00,
2013-06-03 20:17:00,67.6,51.8,29.81,West,279,2.3,2.3,57,0.00,CLR,,0.00,WeatherDisplay:10.37,2013-06-04 03:17:00,
2013-06-03 20:22:00,67.1,51.8,29.81,WNW,302,3.5,3.5,58,0.00,CLR,,0.00,WeatherDisplay:10.37,2013-06-04 03:22:00,
2013-06-03 20:27:00,66.5,51.7,29.81,NNW,328,3.5,3.5,59,0.00,CLR,,0.00,WeatherDisplay:10.37,2013-06-04 03:27:00,
2013-06-03 20:32:00,66.0,51.3,29.81,West,281,6.9,6.9,59,0.00,CLR,,0.00,WeatherDisplay:10.37,2013-06-04 03:32:00,
2013-06-03 20:37:00,65.7,51.4,29.81,NW,319,3.5,3.5,60,0.00,CLR,,0.00,WeatherDisplay:10.37,2013-06-04 03:37:00,
2013-06-03 20:42:00,65.4,51.1,29.82,NW,307,9.0,9.0,60,0.00,CLR,,0.00,WeatherDisplay:10.37,2013-06-04 03:42:00,
2013-06-03 20:47:00,65.0,51.2,29.82,NW,314,4.6,4.6,61,0.00,CLR,,0.00,WeatherDisplay:10.37,2013-06-04 03:47:00,
2013-06-03 20:52:00,64.7,51.4,29.82,WNW,285,3.5,3.5,62,0.00,CLR,,0.00,WeatherDisplay:10.37,2013-06-04 03:52:00,
2013-06-03 20:57:00,64.3,51.4,29.82,West,266,4.6,4.6,63,0.00,CLR,,0.00,WeatherDisplay:10.37,2013-06-04 03:57:00,
2013-06-03 21:01:00,64.0,51.1,29.83,SW,226,2.3,2.3,63,0.00,CLR,,0.00,WeatherDisplay:10.37,2013-06-04 04:01:00,
2013-06-03 21:02:00,64.0,51.1,29.83,WNW,283,2.3,2.3,63,0.00,CLR,,0.00,WeatherDisplay:10.37,2013-06-04 04:02:00,
2013-06-03 21:05:00,63.8,51.0,29.83,NW,305,5.8,5.8,63,0.00,CLR,,0.00,WeatherDisplay:10.37,2013-06-04 04:05:00,
2013-06-03 21:10:00,63.5,51.1,29.83,NW,309,6.9,6.9,64,0.00,CLR,,0.00,WeatherDisplay:10.37,2013-06-04 04:10:00,
2013-06-03 21:15:00,63.4,51.0,29.83,WNW,283,2.3,2.3,64,0.00,CLR,,0.00,WeatherDisplay:10.37,2013-06-04 04:15:00,
2013-06-03 21:20:00,63.2,50.8,29.83,NW,309,5.8,5.8,64,0.00,CLR,,0.00,WeatherDisplay:10.37,2013-06-04 04:20:00,
2013-06-03 21:25:00,63.1,50.7,29.84,WNW,303,3.5,3.5,64,0.00,CLR,,0.00,WeatherDisplay:10.37,2013-06-04 04:25:00,
2013-06-03 21:30:00,62.8,50.4,29.84,SW,229,8.1,8.1,64,0.00,CLR,,0.00,WeatherDisplay:10.37,2013-06-04 04:30:00,
2013-06-03 21:35:00,62.4,50.5,29.84,West,268,4.6,4.6,65,0.00,CLR,,0.00,WeatherDisplay:10.37,2013-06-04 04:35:00,
2013-06-03 21:40:00,62.1,50.6,29.84,West,263,3.5,3.5,66,0.00,CLR,,0.00,WeatherDisplay:10.37,2013-06-04 04:40:00,
2013-06-03 21:45:00,61.8,50.7,29.84,NW,326,5.8,5.8,67,0.00,CLR,,0.00,WeatherDisplay:10.37,2013-06-04 04:45:00,
2013-06-03 21:50:00,61.4,50.3,29.84,WNW,290,3.5,3.5,67,0.00,CLR,,0.00,WeatherDisplay:10.37,2013-06-04 04:50:00,
2013-06-03 21:55:00,61.2,50.6,29.85,WSW,244,5.8,5.8,68,0.00,CLR,,0.00,WeatherDisplay:10.37,2013-06-04 04:55:00,
2013-06-03 22:00:00,61.0,50.4,29.85,NW,304,3.5,3.5,68,0.00,CLR,,0.00,WeatherDisplay:10.37,2013-06-04 05:00:00,
2013-06-03 22:05:00,60.7,50.5,29.85,NW,309,4.6,4.6,69,0.00,CLR,,0.00,WeatherDisplay:10.37,2013-06-04 05:05:00,
2013-06-03 22:10:00,60.5,50.3,29.85,NNW,342,5.8,5.8,69,0.00,CLR,,0.00,WeatherDisplay:10.37,2013-06-04 05:10:00,
2013-06-03 22:15:00,60.3,50.5,29.85,NW,322,4.0,4.0,70,0.00,CLR,,0.00,WeatherDisplay:10.37,2013-06-04 05:15:00,
2013-06-03 22:20:00,60.1,50.3,29.85,North,349,3.0,3.0,70,0.00,CLR,,0.00,WeatherDisplay:10.37,2013-06-04 05:20:00,
2013-06-03 22:25:00,60.0,50.2,29.85,NNW,342,3.5,3.5,70,0.00,CLR,,0.00,WeatherDisplay:10.37,2013-06-04 05:25:00,
2013-06-03 22:30:00,59.7,50.3,29.85,NNW,338,6.0,6.0,71,0.00,CLR,,0.00,WeatherDisplay:10.37,2013-06-04 05:30:00,
2013-06-03 22:35:00,59.5,50.1,29.85,NW,312,2.3,2.3,71,0.00,CLR,,0.00,WeatherDisplay:10.37,2013-06-04 05:35:00,
2013-06-03 22:40:00,59.3,50.3,29.85,North,5,3.5,3.5,72,0.00,CLR,,0.00,WeatherDisplay:10.37,2013-06-04 05:40:00,
2013-06-03 22:45:00,58.9,49.9,29.86,NNW,339,2.3,2.3,72,0.00,CLR,,0.00,WeatherDisplay:10.37,2013-06-04 05:45:00,
2013-06-03 22:50:00,58.7,50.1,29.86,NNW,342,2.3,2.3,73,0.00,CLR,,0.00,WeatherDisplay:10.37,2013-06-04 05:50:00,
2013-06-03 22:55:00,58.2,49.6,29.86,NNW,327,3.5,3.5,73,0.00,CLR,,0.00,WeatherDisplay:10.37,2013-06-04 05:55:00,
2013-06-03 23:00:00,57.5,49.6,29.86,North,358,4.0,4.0,75,0.00,CLR,,0.00,WeatherDisplay:10.37,2013-06-04 06:00:00,
2013-06-03 23:05:00,57.4,49.9,29.86,NNW,334,4.6,4.6,76,0.00,CLR,,0.00,WeatherDisplay:10.37,2013-06-04 06:05:00,
2013-06-03 23:10:00,57.4,49.9,29.86,North,354,4.6,4.6,76,0.00,CLR,,0.00,WeatherDisplay:10.37,2013-06-04 06:10:00,
2013-06-03 23:16:00,57.3,49.8,29.86,NNE,32,4.6,4.6,76,0.00,CLR,,0.00,WeatherDisplay:10.37,2013-06-04 06:16:00,
2013-06-03 23:21:00,57.1,50.0,29.86,NNW,338,3.5,3.5,77,0.00,CLR,,0.00,WeatherDisplay:10.37,2013-06-04 06:21:00,
2013-06-03 23:26:00,56.9,49.8,29.86,NNW,346,7.0,7.0,77,0.00,CLR,,0.00,WeatherDisplay:10.37,2013-06-04 06:26:00,
2013-06-03 23:31:00,56.8,50.0,29.86,NNW,339,6.9,6.9,78,0.00,CLR,,0.00,WeatherDisplay:10.37,2013-06-04 06:31:00,
2013-06-03 23:36:00,56.6,49.8,29.86,North,8,7.0,7.0,78,0.00,CLR,,0.00,WeatherDisplay:10.37,2013-06-04 06:36:00,
2013-06-03 23:41:00,56.5,49.7,29.86,North,360,6.9,6.9,78,0.00,CLR,,0.00,WeatherDisplay:10.37,2013-06-04 06:41:00,
2013-06-03 23:46:00,56.2,49.8,29.86,North,354,6.9,6.9,79,0.00,CLR,,0.00,WeatherDisplay:10.37,2013-06-04 06:46:00,
2013-06-03 23:51:00,56.1,49.7,29.86,NNE,22,6.0,6.0,79,0.00,CLR,,0.00,WeatherDisplay:10.37,2013-06-04 06:51:00,
2013-06-03 23:56:00,55.9,49.8,29.86,NNW,340,5.8,5.8,80,0.00,CLR,,0.00,WeatherDisplay:10.37,2013-06-04 06:56:00,